Browsing mikocon's torrents (3997)

Category Name Link Size Date
Art - Games 1 │2D.G.F.│ [200804] [ぺぺろんちーの] ゴブリンの巣穴 絶望アップグレードデータ 689.5 MiB 2020-09-21 12:30 53 16 606
Art - Games 1 │2D.G.F.│ [200803] [Twintail Script] 偽り魔法少女かえで (Ver.1.0) 193.9 MiB 2020-09-21 12:29 33 6 431
Art - Games 1 │2D.G.F.│ [200801] [トラクトリ] 絶対服従クライシス (Ver.2020-08-03/1.03) 512.2 MiB 2020-09-21 12:28 65 5 786
Art - Games 1 │2D.G.F.│ [200801] [ナイアガラ連合] くすぐり奴隷商 ~叛逆の100日間~ 464.2 MiB 2020-09-21 12:26 30 11 450
Art - Games 1 │2D.G.F.│ [200725] [ザロッテン] 魔王と魔王と勇者と魔王 (Ver.2020-07-26) 525.1 MiB 2020-09-21 12:24 39 10 443
Art - Games 1 │2D.G.F.│ [200716] [moyasix] PIGTAIL COSPLAY!! 104.8 MiB 2020-09-21 12:23 44 6 429
Art - Games 1 │2D.G.F.│ [200715] [マシーナリー] 秘密組織フェブラリー 唄浜支部の記録 35.2 MiB 2020-09-21 12:22 39 6 439
Art - Games 1 │2D.G.F.│ [200707] [砂時計と鉛筆] マート×テトラ 509.6 MiB 2020-09-21 12:21 44 13 510
Art - Games 1 │2D.G.F.│ [200702] [ヴィンセント] ぷにぺた 352.9 MiB 2020-09-21 12:20 36 8 403
Art - Games 1 │2D.G.F.│ [200619] [三つ雨] 人妻ナンパの町 112.7 MiB 2020-09-21 12:18 43 3 479
Art - Games 1 │2D.G.F.│ [200611] [ファルコン115] アーチャーさやちゃんのゆるい大冒険 (Ver.2020-06-26/1.2) 200.2 MiB 2020-09-21 12:17 37 5 414
Art - Games 1 │2D.G.F.│ [200603] [ST Hot Dog King] Tentacle Elf 240.4 MiB 2020-09-21 12:16 14 7 206
Art - Games 1 │2D.G.F.│ [200415] [KineticDog] Endless Defeat Arena (中国語バージョン) 435.1 MiB 2020-09-21 12:14 15 5 201
Art - Games 2 │2D.G.F.│ [200330] [ソルネア] サイコダイバー (Ver.2020-04-13) 602.4 MiB 2020-09-21 09:15 36 5 426
Art - Games 1 │2D.G.F.│ [200321] [からあげカンパニー] 生意気な風紀委員長の中里アンリが穴に挟まったら、恨みを持っているDQN達が集まってきましたw 616.7 MiB 2020-09-21 09:14 35 15 610
Art - Games 1 │2D.G.F.│ [200308] [清水庵] 捕縛のくノ一・いぶき尋問 753.4 MiB 2020-09-21 09:13 40 14 565
Art - Games 1 │2D.G.F.│ [200303] [Heart Eyes Lovers] 動くバーチャルホテルエッチ 78.6 MiB 2020-09-21 09:11 28 5 451
Art - Games 1 │2D.G.F.│ [141008] [PLASTICLABEL] 俺は君の生理用ナプキンを舐めたい 752.5 MiB 2020-09-21 09:10 26 16 360
Art - Games 1 │2D.G.F.│ [130521] [赤月赤座堂] XXXover ~O式ADV~ (Ver.2013-06-30) 327.0 MiB 2020-09-20 13:39 37 6 692
Art - Games 18 │2D.G.F.│ [200801] [唐揚げトマト] ホムンクルス少女は淫乱マゾ奴隷になる運命なのだろうか? 650.0 MiB 2020-09-13 04:36 15 6 683
Art - Games 3 │2D.G.F.│ [200731] [GoldenBoy] NTR伝説 (Ver.2020-08-05) 130.0 MiB 2020-09-13 04:35 36 6 1668
Art - Games 3 │2D.G.F.│ [200731] [なぎや本舗] 魔導学園 1.2 GiB 2020-09-13 04:34 33 5 1304
Art - Games 1 │2D.G.F.│ [200731] [サークル1号] くノ一さくら淫罠洞窟絵巻 1004.5 MiB 2020-09-13 04:33 24 5 1181
Art - Games 1 │2D.G.F.│ [200731] [AleCubicSoft] ザコ迷宮と大魔法使い 336.5 MiB 2020-09-13 04:32 25 6 953
Art - Games 1 │2D.G.F.│ [200731] [俺的嗜好] ★ママショタRPG 浮気なママとボクのヌキヌキエロ同人ライフ! エロ同人誌のネタはママの浮気ザーメン!? ★ (Ver.2020-08-02/1.02) 902.0 MiB 2020-09-13 04:31 15 5 971
Art - Games 1 │2D.G.F.│ [200729] [FANTASY・FACTORY] リナリアの冒険 ~Girls Redemption~ 861.8 MiB 2020-09-13 04:30 16 6 896
Art - Games 1 │2D.G.F.│ [200727] [深淵かぼちゃ] 白スクRPG (Ver.2020-07-28/1.02) 238.1 MiB 2020-09-13 04:29 15 3 516
Art - Games 1 │2D.G.F.│ [200726] [アグノーストス] Nettle Pain ~運命の選定~ 366.9 MiB 2020-09-13 04:28 6 5 642
Art - Games 1 │2D.G.F.│ [200724] [魔法少女倶楽部] 金髪ロリ姫ルーティのHな冒険 501.4 MiB 2020-09-13 04:27 20 2 922
Art - Games 1 │2D.G.F.│ [200724] [クリックアニメ] 脅迫ネトラレ清楚妻 ~孕ませ出産まで子宮に注がれ続けた人妻~ 215.0 MiB 2020-09-13 04:26 20 3 1296
Art - Games 1 │2D.G.F.│ [200720] [毛ガニ研究室] Hな酒場へようこそ (Ver.2020-07-20/1.10) 135.4 MiB 2020-09-13 04:25 23 4 1261
Art - Games 1 │2D.G.F.│ [200719] [スタジオキュー] お嬢様は発情期 (Ver.2020-07-19/1.01) 2.1 GiB 2020-09-13 04:24 22 8 1154
Art - Games 1 │2D.G.F.│ [200718] [アーモンドと巨牛乳] 長谷川麻衣のメイド飼育調教 (Ver.2020-07-21) 67.3 MiB 2020-09-13 04:23 10 1 815
Art - Games 1 │2D.G.F.│ [200718] [居酒屋よっちゃん] オバサンズ・サガ 1015.6 MiB 2020-09-13 04:22 13 4 896
Art - Games 1 │2D.G.F.│ [200718] [ミンワ] 三枚のおふだ 鼎 コドクの妖己 1.1 GiB 2020-09-13 04:21 6 4 610
Art - Games 1 [200717] えるふどろっぷ! ~自称天才探検家の犯されトラップダンジョン~ 748.1 MiB 2020-09-13 04:20 19 7 843
Art - Games 1 │2D.G.F.│ [200713] [お髭の獅子舞] 幽霊お口 ~天国地獄~ 474.3 MiB 2020-09-13 04:19 13 4 697
Art - Games 1 │2D.G.F.│ [200713] [大人の道楽] イモートコントロールダンジョン! 239.1 MiB 2020-09-13 04:18 14 2 727
Art - Games 1 │2D.G.F.│ [200711] [四畳半ファクトリー] モンムスマスター2 (Ver.2020-07-20/1.08) 120.3 MiB 2020-09-13 04:17 8 4 673
Art - Games 1 │2D.G.F.│ [200711] [I'm moralist] 妻獲り迷宮~シェラリィドの異種姦終身刑~ 414.0 MiB 2020-09-13 04:16 10 3 797
Art - Games 1 │2D.G.F.│ [200710] [レイジングテール] Orika 2.3 GiB 2020-09-13 04:15 17 6 707
Art - Games 1 │2D.G.F.│ [200709] [GFF] CONTAMINATION 快堕王女の人格・肉体・国家蹂躙RPG 2.5 GiB 2020-09-13 04:13 12 8 666
Art - Games 1 │2D.G.F.│ [200709] [Contrast Delta] IN FOREST -Two In Crisis- 687.8 MiB 2020-09-13 04:12 10 5 596
Art - Games 1 │2D.G.F.│ [200709] [Fox33工房] 魔剣物語 魔剣使いと霧の王国 471.5 MiB 2020-09-13 04:11 9 5 640
Art - Games 1 │2D.G.F.│ [200709] [く魔王] 肉遊び 148.3 MiB 2020-09-13 04:10 17 4 823
Art - Games 1 │2D.G.F.│ [200707] [ぺぺろんちーの] ゴブリンの巣穴 1.0 GiB 2020-09-13 04:09 24 6 944
Art - Games 1 │2D.G.F.│ [200704] [雨宿り蛙] NTR冒険者 アリサ 222.8 MiB 2020-09-13 04:08 10 5 663
Art - Games 1 │2D.G.F.│ [200704] [PaPaPaGames] ポラリス美少女 737.7 MiB 2020-09-13 04:07 9 7 692
Art - Games 1 │2D.G.F.│ [200704] [FreespaceP] 寝取町のエッチな回覧板 ~町内探索型AVG・玄関あけたら即エッチ~ 848.1 MiB 2020-09-13 04:05 20 2 1391
Art - Games 1 │2D.G.F.│ [200703] [辰巳庵] 私立NPC姦学校 583.7 MiB 2020-09-13 04:04 17 3 1112
Art - Games 2 │2D.G.F.│ [200703] [ジャクシークリエイト] 異世界エロRPG エロティックワールド ~エッチなユニークスキル「エロティックタイム」~ (Ver.2020-07-18) 641.3 MiB 2020-09-13 04:03 28 6 1472
Art - Games 1 │2D.G.F.│ [200702] [GAME EYES] L0ST MEMORIES 673.7 MiB 2020-09-13 04:02 8 4 551
Art - Games 1 │2D.G.F.│ [200701] [焼け石に水掛け論] 朱るい学園性活 351.2 MiB 2020-09-13 04:01 6 3 617
Art - Games 1 │2D.G.F.│ [200629] [おもちだいふく] 色仕掛け学園 ~思春期男子誘惑作戦~ 462.7 MiB 2020-09-13 04:00 6 3 583
Art - Games 2 │2D.G.F.│ [200629] [かでんつぁ] お嬢様と少年盗賊 ~お宝とって逃げろ!逃げろっ!!~ 336.2 MiB 2020-09-13 03:58 8 3 548
Art - Games 1 │2D.G.F.│ [200626] [yukimiya] M剣士アイラと地下監獄からの脱出 171.7 MiB 2020-09-13 03:57 8 4 704
Art - Games 2 │2D.G.F.│ [200624] [Sage] 少女の道草 ~放課後『裏』事情~ 238.8 MiB 2020-09-13 03:56 8 5 989
Art - Games 1 │2D.G.F.│ [200623] [MOETERU計画] ギャクポン -アイドル逆転ポンジャン- (Ver.1.31) 106.4 MiB 2020-09-13 03:55 10 4 585
Art - Games 1 │2D.G.F.│ [200529] [お髭の獅子舞] 悪魔の誘惑 949.4 MiB 2020-09-13 03:54 9 7 526
Art - Games 1 │2D.G.F.│ [200529] [つくだにの里] 小さな聖女と性なる呪い 94.1 MiB 2020-09-13 03:52 15 3 812
Art - Games 1 │2D.G.F.│ [200512] [Twintail Script] 行列のできる少女 24.1 MiB 2020-09-13 03:51 8 3 539
Art - Games 1 │2D.G.F.│ [191223] [レーゲ連合王国] 托卵勇者 ~勇者として転生した俺は血を残す為、人の女に種付けSEXしまくる!~ (Ver.2019-12-24/1.1) 167.1 MiB 2020-09-13 03:50 4 3 615
Art - Games 1 │2D.G.F.│ [191128] [voguish] せんせ補習しよっ 1.1 GiB 2020-09-13 03:49 11 2 750
Art - Games 2 │2D.G.F.│ [191022] [深淵かぼちゃ] マホウノタネ (Ver.2020-02-20/1.30) 239.4 MiB 2020-09-13 03:47 12 3 540
Art - Games 2 (同人ゲーム) [190513][RJ253233][サロベツ銀河] あしたのためにキスをする男.rar 234.0 MiB 2020-09-13 03:46 5 2 458
Art - Games 1 (同人ゲーム) [190427][RJ246848][ドリアーヌ] 暴漢に襲われても進学の為バイトに精を出す女の子のゲーム「THE出前」.rar 50.7 MiB 2020-09-13 03:44 13 2 578
Art - Games 5 │2D.G.F.│ [200709] [ソフトさーくるクレージュ] えんとも ~二人まとめて可愛がってね、パパ~ 1.8 GiB 2020-09-06 06:53 15 4 1057
Art - Games 3 │2D.G.F.│ [200704] [ORCSOFT] 邪娠娼館―淫乱巨乳母娘生贄儀式― 1.3 GiB 2020-09-06 06:51 13 6 1113
Art - Games │2D.G.F.│ [200704] [シコルスキー大佐] 落第魔女イリスと賢者の石 938.6 MiB 2020-09-06 06:51 10 2 874
Art - Games 1 │2D.G.F.│ [200704] [モフ屋] 守護戦姫スズネ 448.4 MiB 2020-09-06 06:50 7 3 862
Art - Games 1 │2D.G.F.│ [200702] [MAPLE CLOVER] メルト オブ コーデリア ~旋律を無くした錬金術士~ 498.3 MiB 2020-09-06 06:49 7 2 836
Art - Games 1 │2D.G.F.│ [200628] [幻灯摩天楼] 陵辱異種姦ダンジョン~媚肉の悦びの記憶に蝕まれる女冒険者たち~ 120.5 MiB 2020-09-06 06:47 7 2 684
Art - Games 1 │2D.G.F.│ [200628] [たぬきハウス] 「Lost Moon」 ~11人の女の子と純愛・種付け・NTR・略奪・女体化・何でもありなRPG~ 679.5 MiB 2020-09-06 06:46 8 2 857
Art - Games 1 │2D.G.F.│ [200628] [和菓子日和] ミレイユと幻惑の森のアムリタ 760.5 MiB 2020-09-06 06:45 11 3 983
Art - Games 1 │2D.G.F.│ [200627] [魔法少女倶楽部] エルフの少女エルミア エッチなダンジョン 459.9 MiB 2020-09-06 06:44 8 3 807